NCAR-RAP Real-Time Weather Data

Output produced by METARs form (28 November 2014  03:55 UTC)
found at http://weather.rap.ucar.edu/surface/
 
Conditions at: K4O4 observed 28 November 2014  03:35 UTC
Temperature: 5.0°C (41°F)
Dewpoint: -2.0°C (28°F) [RH = 60%]
Pressure (altimeter): 30.42 inches Hg (1030.2 mb)
Winds: from the ESE (120 degrees) at 8 MPH (7 knots; 3.6 m/s)
Visibility: 10 or more miles (16+ km)
Ceiling: at least 12,000 feet AGL
Clouds: sky clear below 12,000 feet AGL
Present Weather: automated observation with no human augmentation;
there may or may not be significant weather present at this time
K4O4 280335Z AUTO 12007KT 10SM CLR 05/M02 A3042 RMK AO2